Terminal Aerodrome Forecast
Issued by NWS

Home | Current Version | Previous Version | Text Only | Print | Product List | Glossary On
Versions: 1 2 3 4 5 6 7 8 9 10 11 12 13 14 15 16 17 18 19 20 21 22
000
FTUS45 KGJT 230628 AAB
TAFVEL
TAF AMD
KVEL 230628Z 2306/2406 34004KT 3SM -SN OVC026
      TEMPO 2306/2310 1 1/2SM -SN BR BKN015
     FM231200 13004KT 3SM BR OVC015
     FM231900 27006KT P6SM VCSH OVC045
     FM240100 32004KT P6SM OVC035=

USA.gov is the U.S. government's official web portal to all federal, state and local government web resources and services.